createdAt,value
2023-02-27T00:00:56.725Z,100420.53
2023-02-27T00:03:23.847Z,100412.25
2023-02-27T00:05:50.724Z,100417.47
2023-02-27T00:08:17.635Z,100426.69
2023-02-27T00:10:44.493Z,100435.19
2023-02-27T00:13:11.347Z,100438.16
2023-02-27T00:15:41.038Z,100441.75
2023-02-27T00:18:08.398Z,100450.16
2023-02-27T00:20:38.275Z,100458.31
2023-02-27T00:23:06.139Z,100459.38
2023-02-27T00:25:34.845Z,100459.63
2023-02-27T00:28:01.801Z,100478.22
2023-02-27T00:30:28.999Z,100482.91
2023-02-27T00:32:56.127Z,100486.41
2023-02-27T00:35:22.966Z,100480.09
2023-02-27T00:37:50.008Z,100486.94
2023-02-27T00:40:17.451Z,100504.69
2023-02-27T00:42:46.291Z,100519.03
2023-02-27T00:45:13.160Z,100514.03
2023-02-27T00:47:40.076Z,100498.13
2023-02-27T00:50:07.146Z,100498.88
2023-02-27T00:52:34.642Z,100505.56
2023-02-27T00:55:01.411Z,100505.47
2023-02-27T00:57:28.597Z,100497.03
2023-02-27T00:59:55.384Z,100494.59
2023-02-27T01:02:22.326Z,100496.63
2023-02-27T01:04:49.376Z,100518.75
2023-02-27T01:07:16.421Z,100529.03
2023-02-27T01:09:43.228Z,100531.81
2023-02-27T01:12:10.659Z,100523.59
2023-02-27T01:14:37.453Z,100544.03
2023-02-27T01:17:04.510Z,100548.50
2023-02-27T01:19:31.782Z,100551.44
2023-02-27T01:21:58.608Z,100554.00
2023-02-27T01:24:26.662Z,100552.28
2023-02-27T01:26:53.525Z,100543.91
2023-02-27T01:29:20.656Z,100562.19
2023-02-27T01:31:49.171Z,100548.81
2023-02-27T01:34:16.554Z,100558.19
2023-02-27T01:36:43.495Z,100572.41
2023-02-27T01:39:10.224Z,100569.81
2023-02-27T01:41:37.093Z,100558.34
2023-02-27T01:44:09.734Z,100560.19
2023-02-27T01:46:38.354Z,100566.63
2023-02-27T01:49:22.014Z,100559.44
2023-02-27T01:51:50.627Z,100564.03
2023-02-27T01:54:22.600Z,100559.66
2023-02-27T01:56:50.585Z,100577.03
2023-02-27T01:59:18.938Z,100572.81
2023-02-27T02:01:46.549Z,100570.78
2023-02-27T02:04:25.270Z,100577.22
2023-02-27T02:07:04.788Z,100580.94
2023-02-27T02:09:34.809Z,100590.44
2023-02-27T02:12:02.224Z,100584.44
2023-02-27T02:14:28.995Z,100592.28
2023-02-27T02:17:07.877Z,100594.16
2023-02-27T02:19:49.633Z,100600.31
2023-02-27T02:22:54.773Z,100616.81
2023-02-27T02:25:36.770Z,100606.44
2023-02-27T02:28:25.313Z,100602.16
2023-02-27T02:30:55.273Z,100626.75
2023-02-27T02:33:22.056Z,100635.34
2023-02-27T02:36:09.664Z,100640.34
2023-02-27T02:38:39.375Z,100645.22
2023-02-27T02:41:25.612Z,100649.78
2023-02-27T02:44:03.826Z,100644.75
2023-02-27T02:46:30.579Z,100645.66
2023-02-27T02:49:11.694Z,100646.44
2023-02-27T02:51:41.357Z,100655.88
2023-02-27T02:54:20.710Z,100656.75
2023-02-27T02:56:57.106Z,100657.63
2023-02-27T02:59:36.800Z,100641.28
2023-02-27T03:02:09.824Z,100672.09
2023-02-27T03:05:07.448Z,100668.13
2023-02-27T03:07:44.272Z,100685.03
2023-02-27T03:10:21.250Z,100685.06
2023-02-27T03:12:56.593Z,100687.00
2023-02-27T03:15:30.219Z,100697.03
2023-02-27T03:18:08.713Z,100703.19
2023-02-27T03:20:44.162Z,100715.34
2023-02-27T03:23:17.454Z,100713.94
2023-02-27T03:25:46.471Z,100719.34
2023-02-27T03:28:18.776Z,100712.09
2023-02-27T03:30:53.541Z,100718.41
2023-02-27T03:33:31.307Z,100726.13
2023-02-27T03:36:19.401Z,100726.81
2023-02-27T03:39:17.470Z,100739.34
2023-02-27T03:41:54.370Z,100735.69
2023-02-27T03:45:48.446Z,100741.25
2023-02-27T03:48:15.454Z,100747.84
2023-02-27T03:50:42.264Z,100744.75
2023-02-27T03:53:21.027Z,100742.56
2023-02-27T03:55:50.468Z,100746.16
2023-02-27T03:58:17.369Z,100752.13
2023-02-27T04:00:44.303Z,100760.84
2023-02-27T04:03:11.826Z,100763.53
2023-02-27T04:05:38.691Z,100766.38
2023-02-27T04:08:32.654Z,100769.16
2023-02-27T04:11:21.267Z,100772.69
2023-02-27T04:13:59.995Z,100780.69
2023-02-27T04:17:09.148Z,100788.75
2023-02-27T04:20:02.026Z,100784.22
2023-02-27T04:22:39.999Z,100795.44
2023-02-27T04:25:24.109Z,100798.16
2023-02-27T04:28:02.966Z,100799.19
2023-02-27T04:31:01.503Z,100795.13
2023-02-27T04:33:43.651Z,100803.84
2023-02-27T04:36:25.075Z,100810.09
2023-02-27T04:38:55.327Z,100821.22
2023-02-27T04:41:28.910Z,100829.03
2023-02-27T04:43:57.202Z,100818.19
2023-02-27T04:46:28.056Z,100824.28
2023-02-27T04:49:10.299Z,100827.41
2023-02-27T04:51:44.459Z,100830.19
2023-02-27T04:54:16.131Z,100824.97
2023-02-27T04:56:51.509Z,100827.44
2023-02-27T04:59:27.141Z,100838.84
2023-02-27T05:02:02.077Z,100843.19
2023-02-27T05:04:33.967Z,100843.38
2023-02-27T05:07:03.181Z,100851.88
2023-02-27T05:09:36.966Z,100851.88
2023-02-27T05:12:23.012Z,100852.63
2023-02-27T05:14:56.512Z,100856.97
2023-02-27T05:17:31.909Z,100861.47
2023-02-27T05:19:59.504Z,100866.81
2023-02-27T05:22:58.866Z,100862.56
2023-02-27T05:25:51.845Z,100870.41
2023-02-27T05:28:24.573Z,100873.75
2023-02-27T05:31:03.882Z,100883.44
2023-02-27T05:33:41.700Z,100868.94
2023-02-27T05:36:15.576Z,100877.47
2023-02-27T05:38:48.582Z,100875.94
2023-02-27T05:41:25.032Z,100877.84
2023-02-27T05:43:57.143Z,100870.03
2023-02-27T05:46:30.461Z,100877.59
2023-02-27T05:49:12.213Z,100879.63
2023-02-27T05:51:43.054Z,100884.94
2023-02-27T05:54:36.649Z,100885.88
2023-02-27T05:57:08.791Z,100892.69
2023-02-27T06:00:06.501Z,100894.66
2023-02-27T06:02:39.778Z,100900.06
2023-02-27T06:05:08.987Z,100901.75
2023-02-27T06:07:36.598Z,100908.22
2023-02-27T06:10:06.158Z,100910.22
2023-02-27T06:12:32.953Z,100917.84
2023-02-27T06:14:59.697Z,100923.44
2023-02-27T06:17:26.458Z,100934.16
2023-02-27T06:19:53.133Z,100930.34
2023-02-27T06:22:19.915Z,100930.31
2023-02-27T06:24:46.714Z,100938.06
2023-02-27T06:27:13.498Z,100935.50
2023-02-27T06:29:40.480Z,100939.13
2023-02-27T06:32:07.260Z,100940.78
2023-02-27T06:34:34.188Z,100934.03
2023-02-27T06:37:03.908Z,100944.06
2023-02-27T06:39:31.215Z,100940.88
2023-02-27T06:41:57.986Z,100946.09
2023-02-27T06:44:24.872Z,100950.59
2023-02-27T06:46:51.619Z,100955.25
2023-02-27T06:49:19.106Z,100957.19
2023-02-27T06:51:46.054Z,100953.22
2023-02-27T06:54:13.061Z,100960.41
2023-02-27T06:56:39.818Z,100964.19
2023-02-27T06:59:06.868Z,100956.78
2023-02-27T07:01:33.709Z,100957.69
2023-02-27T07:04:01.230Z,100961.75
2023-02-27T07:07:31.144Z,100948.31
2023-02-27T07:09:14.811Z,100967.16
2023-02-27T07:11:41.508Z,100963.56
2023-02-27T07:14:08.335Z,100968.91
2023-02-27T07:16:35.158Z,100964.19
2023-02-27T07:19:01.955Z,100972.00
2023-02-27T07:21:28.734Z,100972.38
2023-02-27T07:23:55.625Z,100969.94
2023-02-27T07:26:22.336Z,100968.38
2023-02-27T07:28:49.124Z,100963.97
2023-02-27T07:31:15.953Z,100968.97
2023-02-27T07:33:42.708Z,100968.84
2023-02-27T07:36:09.566Z,100973.56
2023-02-27T07:38:36.295Z,100977.03
2023-02-27T07:41:03.020Z,100976.63
2023-02-27T07:43:29.803Z,100976.00
2023-02-27T07:45:57.233Z,100979.00
2023-02-27T07:48:24.343Z,100979.28
2023-02-27T07:50:51.042Z,100984.22
2023-02-27T07:53:20.309Z,100991.03
2023-02-27T07:55:47.316Z,100988.78
2023-02-27T07:58:14.109Z,100995.66
2023-02-27T08:00:40.835Z,100989.66
2023-02-27T08:03:07.661Z,101000.75
2023-02-27T08:05:34.510Z,101010.47
2023-02-27T08:08:01.798Z,100997.69
2023-02-27T08:10:28.572Z,101008.94
2023-02-27T08:12:55.422Z,101016.47
2023-02-27T08:15:22.276Z,101013.38
2023-02-27T08:17:49.137Z,101017.03
2023-02-27T08:20:16.372Z,101019.00
2023-02-27T08:22:43.401Z,101023.50
2023-02-27T08:25:11.302Z,101015.19
2023-02-27T08:27:38.921Z,101021.38
2023-02-27T08:30:07.862Z,101027.50
2023-02-27T08:32:34.927Z,101025.13
2023-02-27T08:35:02.261Z,101032.09
2023-02-27T08:37:29.565Z,101039.06
2023-02-27T08:39:56.258Z,101037.75
2023-02-27T08:42:23.529Z,101036.03
2023-02-27T08:44:51.181Z,101042.59
2023-02-27T08:47:18.889Z,101037.69
2023-02-27T08:49:45.607Z,101041.41
2023-02-27T08:52:12.395Z,101039.66
2023-02-27T08:54:39.112Z,101032.78
2023-02-27T08:57:06.158Z,101043.38
2023-02-27T08:59:33.039Z,101043.50
2023-02-27T09:02:00.779Z,101040.09
2023-02-27T09:04:27.632Z,101052.94
2023-02-27T09:06:54.558Z,101062.16
2023-02-27T09:09:23.701Z,101069.03
2023-02-27T09:11:51.772Z,101068.16
2023-02-27T09:14:18.999Z,101071.66
2023-02-27T09:16:46.401Z,101073.56
2023-02-27T09:19:14.527Z,101078.00
2023-02-27T09:21:42.624Z,101075.75
2023-02-27T09:24:19.255Z,101078.19
2023-02-27T09:26:48.031Z,101078.75
2023-02-27T09:29:15.126Z,101087.31
2023-02-27T09:31:42.272Z,101087.13
2023-02-27T09:34:09.252Z,101083.78
2023-02-27T09:36:36.025Z,101089.66
2023-02-27T09:39:02.980Z,101099.13
2023-02-27T09:41:48.705Z,101090.69
2023-02-27T09:44:46.167Z,101088.44
2023-02-27T09:47:25.520Z,101094.13
2023-02-27T09:50:03.399Z,101101.84
2023-02-27T09:52:32.737Z,101104.88
2023-02-27T09:54:59.719Z,101097.50
2023-02-27T09:57:47.012Z,101104.94
2023-02-27T10:00:25.629Z,101107.00
2023-02-27T10:03:11.669Z,101100.03
2023-02-27T10:05:41.241Z,101099.59
2023-02-27T10:08:43.208Z,101099.91
2023-02-27T10:11:15.337Z,101117.22
2023-02-27T10:13:53.882Z,101116.34
2023-02-27T10:16:22.571Z,101124.88
2023-02-27T10:19:02.521Z,101124.97
2023-02-27T10:21:43.530Z,101125.50
2023-02-27T10:24:34.009Z,101129.88
2023-02-27T10:27:05.738Z,101137.00
2023-02-27T10:29:39.822Z,101134.59
2023-02-27T10:32:19.335Z,101132.03
2023-02-27T10:34:54.979Z,101124.44
2023-02-27T10:37:25.861Z,101122.66
2023-02-27T10:39:59.866Z,101131.44
2023-02-27T10:42:32.202Z,101135.44
2023-02-27T10:44:59.265Z,101142.00
2023-02-27T10:47:26.563Z,101146.81
2023-02-27T10:49:54.972Z,101145.88
2023-02-27T10:52:22.414Z,101151.06
2023-02-27T10:54:49.359Z,101161.25
2023-02-27T10:57:21.569Z,101152.53
2023-02-27T10:59:54.932Z,101161.63
2023-02-27T11:02:25.848Z,101157.84
2023-02-27T11:04:58.794Z,101169.72
2023-02-27T11:07:32.691Z,101165.38
2023-02-27T11:10:14.656Z,101163.75
2023-02-27T11:12:56.254Z,101167.72
2023-02-27T11:15:32.278Z,101165.81
2023-02-27T11:18:29.346Z,101163.81
2023-02-27T11:21:14.816Z,101170.31
2023-02-27T11:24:07.824Z,101173.63
2023-02-27T11:26:40.733Z,101163.31
2023-02-27T11:29:14.172Z,101171.81
2023-02-27T11:31:51.683Z,101165.78
2023-02-27T11:34:20.785Z,101160.50
2023-02-27T11:36:49.748Z,101163.06
2023-02-27T11:39:51.308Z,101155.25
2023-02-27T11:42:30.885Z,101155.63
2023-02-27T11:45:05.295Z,101152.19
2023-02-27T11:47:38.737Z,101158.00
2023-02-27T11:50:05.587Z,101148.66
2023-02-27T11:52:41.668Z,101155.78
2023-02-27T11:55:17.983Z,101151.50
2023-02-27T11:57:50.382Z,101157.31
2023-02-27T12:00:30.964Z,101153.25
2023-02-27T12:03:06.679Z,101157.41
2023-02-27T12:05:40.765Z,101153.94
2023-02-27T12:08:14.626Z,101151.44
2023-02-27T12:11:12.420Z,101150.69
2023-02-27T12:13:43.079Z,101148.34
2023-02-27T12:16:15.801Z,101149.38
2023-02-27T12:18:57.906Z,101141.59
2023-02-27T12:21:28.858Z,101154.47
2023-02-27T12:24:02.785Z,101152.72
2023-02-27T12:26:40.029Z,101153.78
2023-02-27T12:29:17.754Z,101162.19
2023-02-27T12:31:54.340Z,101150.44
2023-02-27T12:34:28.662Z,101163.50
2023-02-27T12:37:03.331Z,101168.56
2023-02-27T12:39:32.215Z,101169.88
2023-02-27T12:42:17.001Z,101157.22
2023-02-27T12:44:55.928Z,101165.91
2023-02-27T12:48:00.169Z,101160.97
2023-02-27T12:50:50.706Z,101167.31
2023-02-27T12:53:46.248Z,101172.97
2023-02-27T12:56:19.996Z,101178.13
2023-02-27T12:59:30.183Z,101176.53
2023-02-27T13:02:18.934Z,101173.03
2023-02-27T13:04:48.870Z,101172.88
2023-02-27T13:07:26.900Z,101171.25
2023-02-27T13:10:02.471Z,101172.03
2023-02-27T13:12:36.857Z,101173.00
2023-02-27T13:15:11.303Z,101180.53
2023-02-27T13:18:15.394Z,101187.13
2023-02-27T13:20:53.953Z,101200.69
2023-02-27T13:23:48.831Z,101199.56
2023-02-27T13:26:24.774Z,101201.94
2023-02-27T13:28:53.983Z,101209.19
2023-02-27T13:31:42.536Z,101209.91
2023-02-27T13:34:37.075Z,101205.50
2023-02-27T13:37:11.716Z,101218.16
2023-02-27T13:39:45.739Z,101223.28
2023-02-27T13:42:27.834Z,101220.72
2023-02-27T13:44:56.612Z,101231.56
2023-02-27T13:47:29.576Z,101227.31
2023-02-27T13:50:04.339Z,101230.72
2023-02-27T13:52:34.051Z,101229.06
2023-02-27T13:55:11.361Z,101227.28
2023-02-27T13:57:39.333Z,101225.75
2023-02-27T14:00:19.296Z,101229.97
2023-02-27T14:03:00.534Z,101230.88
2023-02-27T14:05:35.121Z,101234.28
2023-02-27T14:08:08.261Z,101241.31
2023-02-27T14:10:38.740Z,101242.25
2023-02-27T14:13:27.053Z,101241.38
2023-02-27T14:15:57.417Z,101233.56
2023-02-27T14:18:50.423Z,101237.69
2023-02-27T14:21:51.312Z,101244.59
2023-02-27T14:24:44.826Z,101243.19
2023-02-27T14:27:22.741Z,101249.81
2023-02-27T14:29:52.479Z,101243.69
2023-02-27T14:32:26.084Z,101251.38
2023-02-27T14:34:55.986Z,101256.59
2023-02-27T14:37:26.714Z,101248.81
2023-02-27T14:39:55.928Z,101251.28
2023-02-27T14:42:45.181Z,101251.09
2023-02-27T14:45:24.319Z,101257.16
2023-02-27T14:47:53.295Z,101257.94
2023-02-27T14:50:28.084Z,101264.84
2023-02-27T14:52:55.702Z,101261.34
2023-02-27T14:55:32.642Z,101264.66
2023-02-27T14:58:17.899Z,101265.59
2023-02-27T15:00:51.009Z,101270.72
2023-02-27T15:03:17.996Z,101275.00
2023-02-27T15:05:46.276Z,101278.13
2023-02-27T15:08:20.605Z,101273.09
2023-02-27T15:10:47.879Z,101275.59
2023-02-27T15:13:23.841Z,101278.06
2023-02-27T15:15:53.786Z,101280.59
2023-02-27T15:18:24.491Z,101278.72
2023-02-27T15:20:58.912Z,101280.63
2023-02-27T15:23:28.624Z,101293.41
2023-02-27T15:25:58.324Z,101294.44
2023-02-27T15:28:30.830Z,101289.31
2023-02-27T15:30:58.015Z,101297.81
2023-02-27T15:33:29.240Z,101303.72
2023-02-27T15:35:56.996Z,101305.69
2023-02-27T15:38:31.159Z,101307.41
2023-02-27T15:40:59.854Z,101315.09
2023-02-27T15:43:28.479Z,101318.34
2023-02-27T15:45:56.347Z,101322.78
2023-02-27T15:48:23.615Z,101322.00
2023-02-27T15:50:58.175Z,101321.91
2023-02-27T15:53:30.801Z,101316.91
2023-02-27T15:56:00.884Z,101327.13
2023-02-27T15:58:28.991Z,101333.78
2023-02-27T16:01:00.915Z,101326.78
2023-02-27T16:03:40.404Z,101328.47
2023-02-27T16:06:32.615Z,101337.00
2023-02-27T16:09:01.728Z,101341.19
2023-02-27T16:11:33.086Z,101342.09
2023-02-27T16:14:00.381Z,101343.81
2023-02-27T16:16:38.855Z,101345.44
2023-02-27T16:19:22.768Z,101346.22
2023-02-27T16:22:16.587Z,101348.84
2023-02-27T16:24:44.395Z,101343.56
2023-02-27T16:27:22.482Z,101356.25
2023-02-27T16:29:49.866Z,101350.06
2023-02-27T16:32:28.408Z,101361.09
2023-02-27T16:35:28.554Z,101356.59
2023-02-27T16:38:01.644Z,101353.88
2023-02-27T16:40:29.891Z,101364.00
2023-02-27T16:42:57.356Z,101354.28
2023-02-27T16:45:26.957Z,101353.97
2023-02-27T16:47:57.087Z,101351.25
2023-02-27T16:50:29.965Z,101365.69
2023-02-27T16:52:57.588Z,101358.47
2023-02-27T16:55:25.969Z,101363.41
2023-02-27T16:57:52.910Z,101362.88
2023-02-27T17:00:21.419Z,101363.41
2023-02-27T17:02:48.814Z,101367.44
2023-02-27T17:05:15.958Z,101366.78
2023-02-27T17:07:43.373Z,101363.41
2023-02-27T17:10:16.973Z,101366.84
2023-02-27T17:12:44.260Z,101368.72
2023-02-27T17:15:11.425Z,101369.16
2023-02-27T17:17:38.327Z,101367.88
2023-02-27T17:20:08.727Z,101373.03
2023-02-27T17:22:37.134Z,101380.88
2023-02-27T17:25:04.493Z,101378.38
2023-02-27T17:27:32.121Z,101381.56
2023-02-27T17:29:59.329Z,101388.09
2023-02-27T17:32:26.356Z,101394.88
2023-02-27T17:34:55.192Z,101393.69
2023-02-27T17:37:23.255Z,101401.25
2023-02-27T17:39:50.620Z,101403.69
2023-02-27T17:42:20.693Z,101408.81
2023-02-27T17:44:47.864Z,101407.72
2023-02-27T17:47:15.815Z,101419.75
2023-02-27T17:49:43.507Z,101416.84
2023-02-27T17:52:10.727Z,101419.06
2023-02-27T17:54:37.965Z,101425.81
2023-02-27T17:57:06.963Z,101426.66
2023-02-27T17:59:34.257Z,101431.66
2023-02-27T18:02:01.129Z,101432.75
2023-02-27T18:04:28.741Z,101439.44
2023-02-27T18:06:55.609Z,101437.47
2023-02-27T18:09:23.198Z,101442.13
2023-02-27T18:11:50.405Z,101441.13
2023-02-27T18:14:17.649Z,101454.06
2023-02-27T18:16:45.185Z,101462.09
2023-02-27T18:19:12.547Z,101455.66
2023-02-27T18:21:39.728Z,101457.38
2023-02-27T18:24:07.393Z,101454.00
2023-02-27T18:26:34.921Z,101457.38
2023-02-27T18:29:11.173Z,101463.78
2023-02-27T18:31:44.327Z,101463.66
2023-02-27T18:34:12.396Z,101467.38
2023-02-27T18:36:41.880Z,101468.78
2023-02-27T18:39:09.326Z,101468.59
2023-02-27T18:41:37.045Z,101471.28
2023-02-27T18:44:05.267Z,101468.91
2023-02-27T18:46:32.995Z,101475.03
2023-02-27T18:49:01.219Z,101471.44
2023-02-27T18:51:28.111Z,101470.47
2023-02-27T18:53:55.100Z,101468.19
2023-02-27T18:56:25.702Z,101473.91
2023-02-27T18:58:54.052Z,101472.59
2023-02-27T19:01:32.300Z,101469.31
2023-02-27T19:04:03.809Z,101469.19
2023-02-27T19:06:36.714Z,101474.88
2023-02-27T19:09:08.405Z,101472.22
2023-02-27T19:11:35.905Z,101474.88
2023-02-27T19:14:04.830Z,101475.78
2023-02-27T19:16:32.361Z,101482.03
2023-02-27T19:19:00.676Z,101477.03
2023-02-27T19:21:28.867Z,101479.66
2023-02-27T19:23:55.933Z,101482.88
2023-02-27T19:26:24.494Z,101482.03
2023-02-27T19:28:55.371Z,101468.91
2023-02-27T19:31:24.290Z,101466.03
2023-02-27T19:33:51.667Z,101455.03
2023-02-27T19:36:21.135Z,101457.38
2023-02-27T19:38:48.768Z,101458.50
2023-02-27T19:41:19.459Z,101456.91
2023-02-27T19:43:48.074Z,101456.22
2023-02-27T19:46:18.603Z,101466.69
2023-02-27T19:48:45.724Z,101465.75
2023-02-27T19:51:14.586Z,101464.09
2023-02-27T19:53:45.610Z,101469.31
2023-02-27T19:56:18.784Z,101475.84
2023-02-27T19:58:47.986Z,101474.66
2023-02-27T20:01:27.062Z,101483.06
2023-02-27T20:03:56.239Z,101494.13
2023-02-27T20:06:26.113Z,101503.47
2023-02-27T20:08:54.250Z,101498.88
2023-02-27T20:11:22.101Z,101501.41
2023-02-27T20:13:50.902Z,101504.56
2023-02-27T20:16:25.808Z,101504.84
2023-02-27T20:18:53.302Z,101509.13
2023-02-27T20:21:22.581Z,101517.88
2023-02-27T20:23:51.781Z,101517.78
2023-02-27T20:26:26.713Z,101519.34
2023-02-27T20:28:56.836Z,101530.34
2023-02-27T20:31:27.640Z,101541.63
2023-02-27T20:33:55.399Z,101543.50
2023-02-27T20:36:23.167Z,101544.53
2023-02-27T20:38:50.379Z,101541.78
2023-02-27T20:41:20.216Z,101549.00
2023-02-27T20:43:47.731Z,101545.06
2023-02-27T20:46:17.947Z,101554.19
2023-02-27T20:48:45.490Z,101555.81
2023-02-27T20:51:16.100Z,101565.44
2023-02-27T20:53:48.380Z,101565.22
2023-02-27T20:56:18.513Z,101568.63
2023-02-27T20:58:52.631Z,101569.09
2023-02-27T21:01:20.441Z,101565.97
2023-02-27T21:03:50.503Z,101568.00
2023-02-27T21:06:20.044Z,101560.66
2023-02-27T21:08:51.832Z,101566.44
2023-02-27T21:11:29.771Z,101566.81
2023-02-27T21:14:05.005Z,101559.44
2023-02-27T21:16:33.491Z,101569.97
2023-02-27T21:19:02.192Z,101569.13
2023-02-27T21:21:32.716Z,101575.22
2023-02-27T21:24:01.504Z,101566.53
2023-02-27T21:26:39.359Z,101571.81
2023-02-27T21:29:11.195Z,101563.50
2023-02-27T21:31:39.958Z,101568.09
2023-02-27T21:34:12.512Z,101566.56
2023-02-27T21:36:43.522Z,101567.50
2023-02-27T21:39:16.918Z,101562.56
2023-02-27T21:41:45.627Z,101567.41
2023-02-27T21:44:15.988Z,101562.41
2023-02-27T21:46:43.341Z,101569.97
2023-02-27T21:49:16.855Z,101571.50
2023-02-27T21:51:44.817Z,101569.50
2023-02-27T21:54:13.666Z,101568.53
2023-02-27T21:56:43.491Z,101562.44
2023-02-27T21:59:12.157Z,101568.97
2023-02-27T22:01:39.796Z,101574.31
2023-02-27T22:04:07.365Z,101576.91
2023-02-27T22:06:35.544Z,101571.22
2023-02-27T22:09:05.785Z,101579.75
2023-02-27T22:11:35.665Z,101571.91
2023-02-27T22:14:05.807Z,101583.81
2023-02-27T22:16:32.927Z,101582.66
2023-02-27T22:19:04.630Z,101579.59
2023-02-27T22:21:32.491Z,101583.00
2023-02-27T22:24:00.005Z,101584.16
2023-02-27T22:26:29.334Z,101593.78
2023-02-27T22:28:57.551Z,101598.25
2023-02-27T22:31:27.938Z,101599.31
2023-02-27T22:33:56.651Z,101600.78
2023-02-27T22:36:26.386Z,101606.31
2023-02-27T22:38:53.917Z,101596.28
2023-02-27T22:41:24.451Z,101603.84
2023-02-27T22:43:51.885Z,101609.44
2023-02-27T22:46:28.429Z,101608.50
2023-02-27T22:48:57.547Z,101612.81
2023-02-27T22:51:27.865Z,101617.38
2023-02-27T22:53:56.907Z,101619.34
2023-02-27T22:56:24.133Z,101621.19
2023-02-27T22:58:51.368Z,101624.66
2023-02-27T23:01:21.608Z,101624.78
2023-02-27T23:03:50.803Z,101627.63
2023-02-27T23:06:22.880Z,101631.94
2023-02-27T23:08:50.119Z,101624.44
2023-02-27T23:11:18.530Z,101627.88
2023-02-27T23:13:46.102Z,101620.06
2023-02-27T23:16:17.169Z,101614.75
2023-02-27T23:18:48.628Z,101619.78
2023-02-27T23:21:17.811Z,101620.66
2023-02-27T23:23:45.184Z,101622.47
2023-02-27T23:26:13.224Z,101622.72
2023-02-27T23:28:40.220Z,101613.16
2023-02-27T23:31:08.392Z,101615.84
2023-02-27T23:33:35.438Z,101607.28
2023-02-27T23:36:03.191Z,101600.56
2023-02-27T23:38:30.771Z,101604.22
2023-02-27T23:40:58.146Z,101601.72
2023-02-27T23:43:43.491Z,101598.75
2023-02-27T23:46:13.454Z,101596.19
2023-02-27T23:48:41.464Z,101597.81
2023-02-27T23:51:15.316Z,101606.38
2023-02-27T23:53:42.967Z,101602.19
2023-02-27T23:56:14.031Z,101597.28
2023-02-27T23:58:41.002Z,101603.84
